Time;durP1;ratioP1;P1;durP2;ratioP2;P2;SDS_P1;SDS_P2;PMS_P1;PMS_P2;Temp;Humidity;BMP_temperature;BMP_pressure;BME280_temperature;BME280_humidity;BME280_pressure;Samples;Min_cycle;Max_cycle;Signal;HPM_P1;HPM_P2
2021/11/06 00:00:46;;;;;;;4.50;3.30;;;8.50;99.90;;;;;;5062446;28;20994;-73
2021/11/06 00:03:11;;;;;;;4.23;3.20;;;8.40;99.90;;;;;;5079433;28;20220;-73
2021/11/06 00:05:38;;;;;;;5.50;3.67;;;8.40;99.90;;;;;;5086124;28;20480;-73
2021/11/06 00:08:04;;;;;;;3.97;3.10;;;8.50;99.90;;;;;;5068116;28;20235;-73
2021/11/06 00:10:30;;;;;;;4.67;3.40;;;8.50;99.90;;;;;;5065859;28;20454;-73
2021/11/06 00:12:56;;;;;;;6.10;4.30;;;8.50;99.90;;;;;;5073082;28;20223;-73
2021/11/06 00:15:22;;;;;;;6.73;4.00;;;8.50;99.90;;;;;;5068273;28;20543;-73
2021/11/06 00:17:48;;;;;;;4.70;3.30;;;8.40;99.90;;;;;;5066721;28;20541;-73
2021/11/06 00:20:15;;;;;;;3.93;3.00;;;8.40;99.90;;;;;;5051068;28;20696;-73
2021/11/06 00:22:41;;;;;;;4.30;3.13;;;8.40;99.90;;;;;;5066212;28;21083;-74
2021/11/06 00:25:10;;;;;;;7.53;4.10;;;8.50;99.90;;;;;;5067936;28;20480;-73
2021/11/06 00:27:37;;;;;;;4.50;3.47;;;8.50;99.90;;;;;;5064008;28;20887;-73
2021/11/06 00:30:06;;;;;;;4.63;3.50;;;8.50;99.90;;;;;;5062879;28;20461;-73
2021/11/06 00:32:33;;;;;;;3.77;3.37;;;8.50;99.90;;;;;;5063374;28;20529;-72
2021/11/06 00:34:59;;;;;;;4.33;3.10;;;8.50;99.90;;;;;;5046140;28;20558;-74
2021/11/06 00:37:25;;;;;;;6.93;4.03;;;8.40;99.90;;;;;;5063901;28;21009;-74
2021/11/06 00:39:51;;;;;;;5.53;3.90;;;8.50;99.90;;;;;;5046483;28;20219;-73
2021/11/06 00:42:17;;;;;;;5.80;3.47;;;8.50;99.90;;;;;;5062569;28;20462;-73
2021/11/06 00:44:43;;;;;;;4.87;3.77;;;8.40;99.90;;;;;;5044941;28;20227;-74
2021/11/06 00:47:10;;;;;;;4.50;3.50;;;8.50;99.90;;;;;;5047530;28;20460;-74
2021/11/06 00:49:37;;;;;;;5.13;3.90;;;8.40;99.90;;;;;;5064436;28;20583;-73
2021/11/06 00:52:04;;;;;;;5.17;4.23;;;8.40;99.90;;;;;;5061317;28;20484;-74
2021/11/06 00:54:30;;;;;;;7.33;3.80;;;8.40;99.90;;;;;;5078020;28;20572;-74
2021/11/06 00:56:55;;;;;;;6.00;3.67;;;8.40;99.90;;;;;;5062213;28;20544;-74
2021/11/06 00:59:21;;;;;;;4.17;3.77;;;8.40;99.90;;;;;;5065067;28;20329;-72
2021/11/06 01:01:47;;;;;;;5.50;4.20;;;8.40;99.90;;;;;;5046613;28;20223;-73
2021/11/06 01:04:12;;;;;;;5.27;3.73;;;8.40;99.90;;;;;;5066458;28;20204;-73
2021/11/06 01:06:38;;;;;;;5.07;3.83;;;8.40;99.90;;;;;;5066873;28;20215;-73
2021/11/06 01:09:04;;;;;;;4.03;3.60;;;8.40;99.90;;;;;;5064899;28;20211;-73
2021/11/06 01:11:30;;;;;;;4.30;3.60;;;8.40;99.90;;;;;;5030934;28;1052427;-73
2021/11/06 01:13:56;;;;;;;6.50;4.57;;;8.40;99.90;;;;;;5064018;28;20298;-74
2021/11/06 01:16:22;;;;;;;6.30;3.30;;;8.40;99.90;;;;;;5047781;28;20219;-74
2021/11/06 01:18:47;;;;;;;6.23;4.20;;;8.40;99.90;;;;;;5062749;28;20314;-73
2021/11/06 01:21:14;;;;;;;7.53;3.83;;;8.40;99.90;;;;;;5065439;28;20287;-72
2021/11/06 01:23:40;;;;;;;10.13;4.73;;;8.40;99.90;;;;;;5063642;28;20218;-73
2021/11/06 01:26:05;;;;;;;5.53;4.03;;;8.40;99.90;;;;;;5080668;28;20528;-73
2021/11/06 01:28:31;;;;;;;5.50;3.90;;;8.40;99.90;;;;;;5064186;28;20571;-74
2021/11/06 01:30:57;;;;;;;4.60;4.20;;;8.40;99.90;;;;;;5062175;28;20227;-75
2021/11/06 01:33:23;;;;;;;5.00;4.37;;;8.40;99.90;;;;;;5062236;28;20285;-74
2021/11/06 01:35:49;;;;;;;4.33;3.60;;;8.40;99.90;;;;;;5082834;28;20223;-73
2021/11/06 01:38:14;;;;;;;4.63;3.60;;;8.40;99.90;;;;;;5084853;28;20468;-73
2021/11/06 01:40:42;;;;;;;6.67;4.40;;;8.40;99.90;;;;;;5065943;28;20219;-74
2021/11/06 01:43:08;;;;;;;5.27;3.83;;;8.40;99.90;;;;;;5050438;28;20239;-73
2021/11/06 01:45:34;;;;;;;6.70;4.70;;;8.40;99.90;;;;;;5067569;28;20460;-73
2021/11/06 01:48:00;;;;;;;7.20;4.40;;;8.40;99.90;;;;;;5049619;28;20224;-73
2021/11/06 01:50:28;;;;;;;5.57;3.80;;;8.40;99.90;;;;;;5067606;28;20227;-73
2021/11/06 01:52:54;;;;;;;6.40;4.10;;;8.40;99.90;;;;;;5065621;28;20963;-74
2021/11/06 01:55:20;;;;;;;4.67;3.77;;;8.40;99.90;;;;;;5067394;28;20468;-73
2021/11/06 01:57:46;;;;;;;4.60;3.93;;;8.40;99.90;;;;;;5065925;28;20230;-74
2021/11/06 02:00:17;;;;;;;8.80;4.43;;;8.40;99.90;;;;;;5067496;28;20532;-73
2021/11/06 02:02:43;;;;;;;5.40;4.27;;;8.40;99.90;;;;;;5048895;28;20501;-73
2021/11/06 02:05:10;;;;;;;7.50;4.40;;;8.40;99.90;;;;;;5083918;28;20469;-71
2021/11/06 02:07:37;;;;;;;6.63;4.70;;;8.40;99.90;;;;;;5067053;28;20892;-73
2021/11/06 02:10:05;;;;;;;6.27;4.50;;;8.40;99.90;;;;;;5065235;28;20454;-74
2021/11/06 02:12:31;;;;;;;6.47;4.10;;;8.40;99.90;;;;;;5065495;28;20919;-73
2021/11/06 02:14:57;;;;;;;3.73;3.07;;;8.40;99.90;;;;;;5064979;28;20465;-72
2021/11/06 02:17:22;;;;;;;5.60;4.17;;;8.40;99.90;;;;;;5066952;28;20305;-72
2021/11/06 02:19:48;;;;;;;6.47;4.47;;;8.40;99.90;;;;;;5065631;28;20234;-73
2021/11/06 02:22:14;;;;;;;5.20;4.20;;;8.40;99.90;;;;;;5083456;28;20229;-73
2021/11/06 02:24:40;;;;;;;11.10;5.20;;;8.30;99.90;;;;;;5066986;28;20258;-73
2021/11/06 02:27:06;;;;;;;6.67;4.57;;;8.30;99.90;;;;;;5083745;28;20219;-73
2021/11/06 02:29:33;;;;;;;7.80;4.83;;;8.30;99.90;;;;;;5067233;28;20461;-74
2021/11/06 02:31:59;;;;;;;8.17;5.43;;;8.30;99.90;;;;;;5065469;28;20223;-73
2021/11/06 02:34:25;;;;;;;7.37;5.10;;;8.30;99.90;;;;;;5067880;28;20970;-73
2021/11/06 02:36:51;;;;;;;7.80;5.10;;;8.30;99.90;;;;;;5065516;28;20464;-74
2021/11/06 02:39:17;;;;;;;7.00;4.27;;;8.30;99.90;;;;;;5067239;28;20524;-73
2021/11/06 02:41:43;;;;;;;6.00;5.03;;;8.30;99.90;;;;;;5065090;28;20595;-74
2021/11/06 02:44:13;;;;;;;5.63;4.17;;;8.30;99.90;;;;;;5073013;28;20222;-73
2021/11/06 02:46:40;;;;;;;8.07;5.20;;;8.30;99.90;;;;;;5087098;28;20463;-73
2021/11/06 02:49:07;;;;;;;10.23;4.80;;;8.30;99.90;;;;;;5070288;28;20444;-72
2021/11/06 02:51:33;;;;;;;5.37;4.20;;;8.20;99.90;;;;;;5087160;28;20506;-74
2021/11/06 02:53:59;;;;;;;4.83;3.70;;;8.20;99.90;;;;;;5085269;28;20973;-73
2021/11/06 02:56:26;;;;;;;15.13;5.70;;;8.20;99.90;;;;;;5104018;28;20230;-73
2021/11/06 02:58:52;;;;;;;9.23;4.47;;;8.20;99.90;;;;;;5085631;28;20623;-72
2021/11/06 03:01:18;;;;;;;5.40;4.40;;;8.30;99.90;;;;;;5084928;28;20476;-71
2021/11/06 03:03:43;;;;;;;6.30;4.90;;;8.20;99.90;;;;;;5065025;28;20514;-73
2021/11/06 03:06:09;;;;;;;6.03;4.30;;;8.20;99.90;;;;;;5086352;28;20218;-73
2021/11/06 03:08:35;;;;;;;5.03;3.70;;;8.20;99.90;;;;;;5079846;28;20607;-73
2021/11/06 03:11:00;;;;;;;4.17;3.50;;;8.10;99.90;;;;;;5081431;28;20588;-73
2021/11/06 03:13:26;;;;;;;5.70;4.37;;;8.10;99.90;;;;;;5086732;28;20646;-72
2021/11/06 03:15:52;;;;;;;5.90;4.20;;;8.10;99.90;;;;;;5086649;28;20229;-72
2021/11/06 03:18:17;;;;;;;6.90;3.87;;;8.20;99.90;;;;;;5079611;28;20241;-73
2021/11/06 03:20:43;;;;;;;6.90;3.90;;;8.20;99.90;;;;;;5063974;28;20228;-73
2021/11/06 03:23:09;;;;;;;4.33;3.83;;;8.20;99.90;;;;;;5075282;28;20215;-72
2021/11/06 03:25:35;;;;;;;4.00;3.60;;;8.20;99.90;;;;;;5098329;28;20586;-75
2021/11/06 03:28:01;;;;;;;5.10;3.57;;;8.20;99.90;;;;;;5085145;28;20535;-73
2021/11/06 03:30:27;;;;;;;5.00;3.80;;;8.20;99.90;;;;;;5082761;28;20238;-73
2021/11/06 03:32:53;;;;;;;4.67;3.37;;;8.20;99.90;;;;;;5056767;28;20697;-74
2021/11/06 03:35:19;;;;;;;3.90;3.50;;;8.20;99.90;;;;;;5085061;28;20231;-73
2021/11/06 03:37:45;;;;;;;4.30;3.50;;;8.20;99.90;;;;;;5068612;28;20868;-73
2021/11/06 03:40:13;;;;;;;11.77;4.43;;;8.20;99.90;;;;;;5089643;28;20982;-73
2021/11/06 03:42:39;;;;;;;4.57;4.10;;;8.20;99.90;;;;;;5065791;28;20579;-72
2021/11/06 03:45:06;;;;;;;8.00;4.40;;;8.10;99.90;;;;;;5072301;28;20867;-74
2021/11/06 03:47:31;;;;;;;8.87;4.10;;;8.10;99.90;;;;;;5098027;28;20938;-73
2021/11/06 03:49:57;;;;;;;8.43;3.93;;;8.10;99.90;;;;;;5085389;28;20464;-74
2021/11/06 03:52:23;;;;;;;6.20;3.87;;;8.10;99.90;;;;;;5085459;28;20214;-73
2021/11/06 03:54:48;;;;;;;5.70;3.70;;;8.10;99.90;;;;;;5077133;28;20234;-74
2021/11/06 03:57:14;;;;;;;5.87;4.20;;;8.10;99.90;;;;;;5090410;28;20421;-72
2021/11/06 03:59:40;;;;;;;11.97;4.27;;;8.10;99.90;;;;;;5091581;28;20279;-74
2021/11/06 04:02:05;;;;;;;5.43;4.07;;;8.10;99.90;;;;;;5089806;28;20277;-72
2021/11/06 04:04:31;;;;;;;5.87;4.30;;;8.10;99.90;;;;;;5098245;28;20222;-73
2021/11/06 04:06:57;;;;;;;6.53;3.90;;;8.10;99.90;;;;;;5080259;28;20719;-72
2021/11/06 04:09:22;;;;;;;5.63;3.97;;;8.10;99.90;;;;;;5085999;28;20265;-73
2021/11/06 04:11:50;;;;;;;4.80;3.70;;;8.10;99.90;;;;;;5084791;28;20700;-73
2021/11/06 04:14:15;;;;;;;4.63;3.80;;;8.00;99.90;;;;;;5086254;28;20229;-72
2021/11/06 04:16:41;;;;;;;6.20;4.00;;;8.00;99.90;;;;;;5071384;28;20553;-73
2021/11/06 04:19:07;;;;;;;4.80;4.10;;;8.00;99.90;;;;;;5050919;28;20212;-74
2021/11/06 04:21:33;;;;;;;9.97;4.53;;;8.00;99.90;;;;;;5063362;28;20360;-74
2021/11/06 04:23:59;;;;;;;4.10;3.33;;;7.90;99.90;;;;;;5071340;28;20214;-74
2021/11/06 04:26:25;;;;;;;3.90;3.17;;;7.90;99.90;;;;;;5086739;28;20961;-73
2021/11/06 04:28:51;;;;;;;4.73;3.60;;;7.90;99.90;;;;;;5088327;28;20451;-73
2021/11/06 04:31:16;;;;;;;6.60;4.03;;;7.90;99.90;;;;;;5088715;28;20214;-74
2021/11/06 04:33:42;;;;;;;6.70;4.20;;;7.90;99.90;;;;;;5075810;28;20223;-73
2021/11/06 04:36:08;;;;;;;6.50;4.87;;;7.80;99.90;;;;;;5089021;28;20629;-73
2021/11/06 04:38:36;;;;;;;6.77;4.20;;;7.80;99.90;;;;;;5095733;28;20219;-73
2021/11/06 04:41:01;;;;;;;7.63;4.60;;;7.80;99.90;;;;;;5086157;28;20456;-73
2021/11/06 04:43:27;;;;;;;4.90;3.77;;;7.70;99.90;;;;;;5088367;28;20448;-72
2021/11/06 04:45:53;;;;;;;4.47;3.30;;;7.80;99.90;;;;;;5065239;28;20637;-73
2021/11/06 04:48:18;;;;;;;5.40;3.60;;;7.80;99.90;;;;;;5069328;28;20457;-73
2021/11/06 04:50:44;;;;;;;7.13;4.93;;;7.80;99.90;;;;;;5084317;28;20276;-72
2021/11/06 04:53:10;;;;;;;6.17;3.87;;;7.70;99.90;;;;;;5071172;28;20203;-74
2021/11/06 04:55:36;;;;;;;7.40;3.80;;;7.60;99.90;;;;;;5080908;28;20214;-73
2021/11/06 04:58:02;;;;;;;5.33;3.90;;;7.50;99.90;;;;;;5086279;28;20691;-73
2021/11/06 05:00:28;;;;;;;3.50;3.20;;;7.50;99.90;;;;;;5077138;28;20757;-73
2021/11/06 05:02:53;;;;;;;7.30;4.20;;;7.50;99.90;;;;;;5084393;28;20472;-73
2021/11/06 05:05:19;;;;;;;7.90;4.23;;;7.50;99.90;;;;;;5089238;28;20672;-73
2021/11/06 05:07:45;;;;;;;5.97;3.93;;;7.50;99.90;;;;;;5071888;28;20219;-72
2021/11/06 05:10:11;;;;;;;8.17;3.77;;;7.50;99.90;;;;;;5081551;28;20214;-73
2021/11/06 05:12:37;;;;;;;6.10;3.87;;;7.60;99.90;;;;;;5074861;28;20223;-73
2021/11/06 05:15:05;;;;;;;6.97;4.80;;;7.50;99.90;;;;;;5087536;28;20246;-73
2021/11/06 05:17:31;;;;;;;8.97;4.80;;;7.50;99.90;;;;;;5077444;28;20511;-73
2021/11/06 05:19:58;;;;;;;5.70;4.50;;;7.50;99.90;;;;;;5101950;28;20460;-73
2021/11/06 05:22:24;;;;;;;5.97;4.07;;;7.50;99.90;;;;;;5086656;28;20233;-72
2021/11/06 05:24:50;;;;;;;5.53;4.13;;;7.50;99.90;;;;;;5095450;28;20461;-74
2021/11/06 05:27:15;;;;;;;7.47;4.70;;;7.50;99.90;;;;;;5088677;28;20468;-73
2021/11/06 05:29:41;;;;;;;13.50;4.20;;;7.50;99.90;;;;;;5086220;28;20271;-73
2021/11/06 05:32:07;;;;;;;6.10;4.57;;;7.50;99.90;;;;;;5061364;28;20219;-73
2021/11/06 05:34:33;;;;;;;6.80;4.13;;;7.50;99.90;;;;;;5088097;28;20228;-73
2021/11/06 05:36:58;;;;;;;7.17;4.53;;;7.50;99.90;;;;;;5096361;28;20539;-72
2021/11/06 05:39:24;;;;;;;7.97;4.53;;;7.50;99.90;;;;;;5098616;28;20643;-73
2021/11/06 05:41:49;;;;;;;6.03;4.60;;;7.50;99.90;;;;;;5081379;28;20704;-73
2021/11/06 05:44:15;;;;;;;4.37;3.80;;;7.50;99.90;;;;;;5079993;28;20704;-72
2021/11/06 05:46:42;;;;;;;7.50;4.80;;;7.40;99.90;;;;;;5071756;28;20275;-74
2021/11/06 05:49:08;;;;;;;4.57;4.07;;;7.40;99.90;;;;;;5076159;28;20215;-73
2021/11/06 05:51:34;;;;;;;5.83;3.70;;;7.40;99.90;;;;;;5084829;28;20461;-73
2021/11/06 05:53:59;;;;;;;8.73;4.27;;;7.40;99.90;;;;;;5083064;28;20492;-73
2021/11/06 05:56:25;;;;;;;5.13;4.03;;;7.30;99.90;;;;;;5095713;28;20226;-73
2021/11/06 05:58:51;;;;;;;5.40;4.40;;;7.30;99.90;;;;;;5069303;28;20219;-73
2021/11/06 06:01:16;;;;;;;6.40;4.80;;;7.30;99.90;;;;;;5095505;28;20253;-72
2021/11/06 06:03:43;;;;;;;8.40;5.30;;;7.30;99.90;;;;;;5077991;28;20638;-73
2021/11/06 06:06:09;;;;;;;9.07;4.57;;;7.30;99.90;;;;;;5087629;28;20241;-73
2021/11/06 06:08:35;;;;;;;6.30;4.30;;;7.30;99.90;;;;;;5072654;28;20441;-73
2021/11/06 06:11:00;;;;;;;6.80;4.87;;;7.20;99.90;;;;;;5049282;28;20542;-73
2021/11/06 06:13:27;;;;;;;8.03;4.13;;;7.20;99.90;;;;;;5067537;28;20285;-73
2021/11/06 06:15:53;;;;;;;6.27;4.30;;;7.20;99.90;;;;;;5065930;28;20306;-73
2021/11/06 06:18:18;;;;;;;9.00;4.83;;;7.20;99.90;;;;;;5067199;28;20461;-73
2021/11/06 06:20:44;;;;;;;5.40;4.27;;;7.10;99.90;;;;;;5090101;28;20218;-73
2021/11/06 06:23:10;;;;;;;5.47;4.10;;;7.00;99.90;;;;;;5078832;28;20229;-72
2021/11/06 06:25:35;;;;;;;8.40;4.47;;;6.90;99.90;;;;;;5087672;28;20249;-73
2021/11/06 06:28:03;;;;;;;6.30;4.50;;;6.90;99.90;;;;;;5085046;28;20582;-72
2021/11/06 06:30:29;;;;;;;6.83;4.97;;;7.00;99.90;;;;;;5075680;28;20211;-73
2021/11/06 06:32:55;;;;;;;6.63;4.57;;;6.90;99.90;;;;;;5082914;28;20993;-73
2021/11/06 06:35:20;;;;;;;8.10;5.70;;;6.80;99.90;;;;;;5074300;28;20463;-73
2021/11/06 06:37:46;;;;;;;27.57;12.80;;;6.80;99.90;;;;;;5070656;28;20230;-73
2021/11/06 06:40:13;;;;;;;56.50;23.33;;;6.80;99.90;;;;;;5067312;28;20243;-73
2021/11/06 06:42:39;;;;;;;37.37;14.90;;;6.80;99.90;;;;;;5098290;28;20218;-73
2021/11/06 06:45:05;;;;;;;20.20;8.70;;;6.90;99.90;;;;;;5083806;28;20468;-74
2021/11/06 06:47:32;;;;;;;11.27;7.23;;;6.90;99.90;;;;;;5080847;28;20457;-74
2021/11/06 06:49:57;;;;;;;8.33;5.97;;;6.90;99.90;;;;;;5077437;28;20456;-73
2021/11/06 06:52:24;;;;;;;13.30;7.03;;;6.80;99.90;;;;;;5087154;28;20463;-72
2021/11/06 06:54:49;;;;;;;9.20;5.80;;;6.80;99.90;;;;;;5085466;28;20233;-73
2021/11/06 06:57:15;;;;;;;13.10;6.73;;;6.80;99.90;;;;;;5093655;28;20453;-72
2021/11/06 06:59:42;;;;;;;9.60;6.07;;;6.80;99.90;;;;;;5070156;28;20222;-72
2021/11/06 07:02:07;;;;;;;7.43;5.73;;;6.90;99.90;;;;;;5083244;28;20317;-72
2021/11/06 07:04:34;;;;;;;30.57;14.53;;;6.90;99.90;;;;;;5072261;28;20552;-73
2021/11/06 07:07:00;;;;;;;82.00;36.53;;;6.90;99.90;;;;;;5076255;28;20214;-72
2021/11/06 07:09:26;;;;;;;68.90;32.67;;;6.90;99.90;;;;;;5049702;28;20469;-74
2021/11/06 07:11:52;;;;;;;24.27;13.20;;;6.90;99.90;;;;;;5048241;28;20250;-73
2021/11/06 07:14:21;;;;;;;22.70;11.77;;;6.80;99.90;;;;;;5066481;28;20211;-73
2021/11/06 07:16:48;;;;;;;16.90;9.33;;;6.80;99.90;;;;;;5048494;28;20453;-72
2021/11/06 07:19:14;;;;;;;12.43;7.30;;;6.80;99.90;;;;;;5067233;28;20450;-74
2021/11/06 07:21:40;;;;;;;10.57;7.33;;;6.70;99.90;;;;;;5083317;28;20482;-73
2021/11/06 07:24:06;;;;;;;10.93;6.83;;;6.70;99.90;;;;;;5053285;28;20453;-71
2021/11/06 07:26:33;;;;;;;12.70;7.07;;;6.70;99.90;;;;;;5065355;28;20226;-73
2021/11/06 07:29:00;;;;;;;8.87;6.00;;;6.70;99.90;;;;;;5078788;28;20468;-74
2021/11/06 07:31:25;;;;;;;8.50;5.17;;;6.60;99.90;;;;;;5082680;28;20469;-73
2021/11/06 07:33:54;;;;;;;9.93;6.70;;;6.60;99.90;;;;;;5090843;28;20455;-73
2021/11/06 07:36:20;;;;;;;6.70;4.67;;;6.60;99.90;;;;;;5104030;28;20225;-72
2021/11/06 07:38:46;;;;;;;7.50;4.63;;;6.60;99.90;;;;;;5089629;28;20455;-72
2021/11/06 07:41:12;;;;;;;8.27;4.37;;;6.50;99.90;;;;;;5048488;28;20832;-73
2021/11/06 07:43:38;;;;;;;6.17;5.00;;;6.60;99.90;;;;;;5048592;28;20216;-73
2021/11/06 07:46:07;;;;;;;7.63;5.60;;;6.60;99.90;;;;;;5066812;28;20446;-73
2021/11/06 07:48:33;;;;;;;6.40;4.90;;;6.70;99.90;;;;;;5049666;28;20460;-72
2021/11/06 07:50:59;;;;;;;8.23;5.70;;;6.70;99.90;;;;;;5083290;28;20453;-73
2021/11/06 07:53:25;;;;;;;7.47;5.80;;;6.70;99.90;;;;;;5055267;28;20493;-72
2021/11/06 07:55:51;;;;;;;7.27;5.10;;;6.70;99.90;;;;;;5055177;28;20473;-74
2021/11/06 07:58:17;;;;;;;8.10;5.23;;;6.70;99.90;;;;;;5078637;28;20242;-73
2021/11/06 08:00:42;;;;;;;8.70;7.20;;;6.70;99.90;;;;;;5068502;28;20223;-73
2021/11/06 08:03:08;;;;;;;13.40;9.93;;;6.70;99.90;;;;;;5066560;28;20228;-72
2021/11/06 08:05:35;;;;;;;14.83;10.63;;;6.70;99.90;;;;;;5064703;28;20226;-73
2021/11/06 08:08:01;;;;;;;14.23;10.40;;;6.70;99.90;;;;;;5031358;28;20472;-72
2021/11/06 08:10:27;;;;;;;13.97;9.70;;;6.70;99.90;;;;;;5058570;28;20490;-73
2021/11/06 08:13:02;;;;;;;12.77;8.50;;;6.80;99.90;;;;;;5051632;28;20504;-73
2021/11/06 08:15:29;;;;;;;12.20;8.10;;;6.80;99.90;;;;;;5049555;28;20470;-73
2021/11/06 08:17:55;;;;;;;9.83;7.00;;;6.80;99.90;;;;;;5048131;28;20450;-73
2021/11/06 08:20:24;;;;;;;6.80;5.27;;;6.80;99.90;;;;;;5049374;28;20990;-72
2021/11/06 08:22:51;;;;;;;10.50;4.87;;;6.80;99.90;;;;;;5041513;28;20266;-73
2021/11/06 08:25:17;;;;;;;7.03;4.73;;;6.80;99.90;;;;;;5029629;28;20459;-73
2021/11/06 08:27:45;;;;;;;8.37;4.37;;;6.80;99.90;;;;;;5047524;28;20451;-73
2021/11/06 08:30:11;;;;;;;6.33;4.27;;;6.90;99.90;;;;;;5053791;28;20458;-73
2021/11/06 08:32:37;;;;;;;9.10;5.43;;;6.90;99.90;;;;;;5053131;28;20481;-72
2021/11/06 08:35:04;;;;;;;7.50;5.30;;;6.90;99.90;;;;;;5048159;28;20995;-74
2021/11/06 08:37:30;;;;;;;8.80;5.17;;;6.90;99.90;;;;;;5055708;28;20297;-74
2021/11/06 08:39:56;;;;;;;10.00;5.47;;;6.90;99.90;;;;;;5046463;28;20973;-74
2021/11/06 08:42:21;;;;;;;7.37;5.10;;;6.90;99.90;;;;;;5030899;28;20307;-71
2021/11/06 08:44:48;;;;;;;7.00;5.30;;;7.00;99.90;;;;;;5047474;28;20576;-73
2021/11/06 08:47:14;;;;;;;5.87;4.67;;;7.00;99.90;;;;;;5048715;28;20223;-73
2021/11/06 08:49:40;;;;;;;9.00;4.57;;;7.00;99.90;;;;;;5056611;28;20462;-73
2021/11/06 08:52:06;;;;;;;8.93;6.10;;;7.10;99.90;;;;;;5047022;28;20537;-72
2021/11/06 08:54:32;;;;;;;14.03;4.90;;;7.20;99.90;;;;;;5048640;28;20577;-73
2021/11/06 08:56:58;;;;;;;8.60;6.10;;;7.20;99.90;;;;;;5050054;28;20303;-73
2021/11/06 08:59:24;;;;;;;7.03;4.33;;;7.30;99.90;;;;;;5067986;28;20228;-74
2021/11/06 09:01:54;;;;;;;8.87;4.97;;;7.40;99.90;;;;;;5054083;28;20223;-74
2021/11/06 09:04:21;;;;;;;9.13;5.13;;;7.60;99.90;;;;;;5059170;28;20390;-73
2021/11/06 09:06:47;;;;;;;7.10;4.60;;;7.70;99.90;;;;;;5046247;28;20478;-73
2021/11/06 09:09:15;;;;;;;6.93;4.60;;;7.70;99.90;;;;;;5041710;28;20548;-73
2021/11/06 09:11:41;;;;;;;6.00;4.83;;;7.80;99.90;;;;;;5049549;28;20232;-73
2021/11/06 09:14:09;;;;;;;7.37;5.10;;;7.90;99.90;;;;;;5044753;28;20451;-73
2021/11/06 09:16:35;;;;;;;8.63;5.30;;;7.90;99.90;;;;;;5054502;28;20473;-73
2021/11/06 09:19:03;;;;;;;11.10;5.53;;;8.00;99.90;;;;;;5063694;28;20449;-74
2021/11/06 09:21:30;;;;;;;5.80;4.00;;;8.10;99.90;;;;;;5063598;28;20527;-73
2021/11/06 09:24:02;;;;;;;8.50;4.97;;;8.30;99.90;;;;;;5063545;28;20451;-73
2021/11/06 09:26:32;;;;;;;5.77;4.53;;;8.40;99.90;;;;;;5076868;28;20462;-73
2021/11/06 09:28:59;;;;;;;10.63;5.00;;;8.40;99.90;;;;;;5052524;28;20458;-74
2021/11/06 09:31:24;;;;;;;9.30;4.93;;;8.50;99.90;;;;;;5064990;28;20553;-73
2021/11/06 09:33:50;;;;;;;7.37;5.00;;;8.60;99.90;;;;;;5070517;28;20540;-72
2021/11/06 09:36:16;;;;;;;9.07;6.40;;;8.70;99.90;;;;;;5076463;28;20231;-74
2021/11/06 09:38:42;;;;;;;9.73;5.47;;;8.70;99.90;;;;;;5061288;28;20318;-73
2021/11/06 09:41:10;;;;;;;7.50;5.30;;;8.80;99.90;;;;;;5047635;28;20470;-73
2021/11/06 09:43:38;;;;;;;8.33;5.00;;;8.90;99.90;;;;;;5056017;28;20211;-71
2021/11/06 09:46:04;;;;;;;5.87;4.87;;;9.00;99.90;;;;;;5056856;28;20507;-73
2021/11/06 09:48:31;;;;;;;10.70;5.90;;;9.10;99.90;;;;;;5034345;28;20548;-74
2021/11/06 09:50:59;;;;;;;9.40;5.67;;;9.20;99.90;;;;;;5047409;28;20460;-72
2021/11/06 09:53:28;;;;;;;6.50;4.80;;;9.30;99.90;;;;;;5053637;28;20445;-71
2021/11/06 09:55:55;;;;;;;9.20;5.80;;;9.30;99.90;;;;;;5048792;28;20578;-74
2021/11/06 09:58:21;;;;;;;6.23;4.80;;;9.30;99.90;;;;;;5049610;28;20466;-74
2021/11/06 10:00:47;;;;;;;7.27;5.30;;;9.30;99.90;;;;;;5049724;28;20464;-73
2021/11/06 10:03:14;;;;;;;10.33;5.73;;;9.30;99.90;;;;;;5042433;28;20274;-73
2021/11/06 10:05:50;;;;;;;8.07;5.20;;;9.30;99.90;;;;;;5036196;28;20477;-74
2021/11/06 10:08:17;;;;;;;6.00;4.97;;;9.40;99.90;;;;;;5042708;28;20481;-72
2021/11/06 10:10:44;;;;;;;12.13;6.50;;;9.40;99.90;;;;;;5047846;28;20467;-72
2021/11/06 10:13:10;;;;;;;8.17;5.43;;;9.40;99.90;;;;;;5053179;28;20534;-74
2021/11/06 10:15:43;;;;;;;7.50;5.57;;;9.50;99.90;;;;;;5051828;28;21060;-74
2021/11/06 10:18:18;;;;;;;9.40;5.50;;;9.50;99.90;;;;;;5040939;28;20565;-73
2021/11/06 10:20:46;;;;;;;9.13;6.87;;;9.60;99.90;;;;;;5067237;28;20471;-74
2021/11/06 10:23:13;;;;;;;12.00;5.70;;;9.70;99.90;;;;;;5075090;28;20456;-75
2021/11/06 10:25:40;;;;;;;7.50;5.90;;;9.70;99.90;;;;;;5077584;28;20469;-74
2021/11/06 10:28:08;;;;;;;10.97;7.20;;;9.90;99.90;;;;;;5053433;28;20457;-74
2021/11/06 10:30:39;;;;;;;9.43;6.43;;;9.90;99.90;;;;;;5088741;28;20456;-74
2021/11/06 10:33:09;;;;;;;8.77;6.13;;;10.00;99.90;;;;;;5076784;28;20466;-74
2021/11/06 10:35:47;;;;;;;8.20;6.27;;;10.00;99.90;;;;;;5069298;28;20553;-74
2021/11/06 10:38:17;;;;;;;9.57;6.40;;;10.10;99.90;;;;;;5090190;28;20460;-73
2021/11/06 10:40:52;;;;;;;11.13;7.03;;;10.20;99.90;;;;;;5065129;28;20540;-73
2021/11/06 10:43:21;;;;;;;8.07;6.40;;;10.30;99.90;;;;;;5059811;28;20479;-74
2021/11/06 10:45:49;;;;;;;13.00;6.60;;;10.40;99.90;;;;;;5081145;28;20977;-74
2021/11/06 10:48:17;;;;;;;10.50;6.33;;;10.50;99.90;;;;;;5103426;28;20456;-74
2021/11/06 10:50:52;;;;;;;12.00;6.80;;;10.50;99.90;;;;;;5081190;28;20974;-74
2021/11/06 10:53:53;;;;;;;14.63;9.17;;;10.50;99.90;;;;;;5061917;28;21019;-74
2021/11/06 10:56:34;;;;;;;20.57;8.87;;;10.60;99.90;;;;;;5067841;28;20836;-74
2021/11/06 10:59:04;;;;;;;12.70;7.90;;;10.70;99.90;;;;;;5056543;28;20462;-74
2021/11/06 11:01:35;;;;;;;11.10;7.10;;;10.90;99.90;;;;;;5070755;28;20599;-74
2021/11/06 11:04:22;;;;;;;11.23;7.10;;;11.00;99.90;;;;;;5082582;28;20804;-74
2021/11/06 11:06:52;;;;;;;8.30;5.60;;;11.00;99.90;;;;;;5081295;28;20470;-74
2021/11/06 11:09:27;;;;;;;9.17;6.37;;;10.90;99.90;;;;;;5079036;28;20535;-71
2021/11/06 11:11:57;;;;;;;8.73;6.10;;;11.10;99.90;;;;;;5086185;28;20499;-74
2021/11/06 11:14:25;;;;;;;6.43;5.80;;;11.30;99.90;;;;;;5080169;28;20464;-74
2021/11/06 11:16:52;;;;;;;8.03;5.80;;;11.40;99.90;;;;;;5051801;28;20466;-74
2021/11/06 11:19:29;;;;;;;9.43;5.40;;;11.60;99.90;;;;;;5061803;28;20523;-72
2021/11/06 11:21:54;;;;;;;6.03;5.20;;;11.70;99.90;;;;;;5054910;28;20492;-75
2021/11/06 11:24:20;;;;;;;7.43;5.40;;;11.90;99.90;;;;;;5084609;28;20495;-74
2021/11/06 11:26:49;;;;;;;6.10;5.50;;;12.00;99.90;;;;;;5048524;28;20234;-74
2021/11/06 11:29:22;;;;;;;5.80;5.20;;;12.00;99.90;;;;;;5047819;28;20216;-74
2021/11/06 11:31:48;;;;;;;7.70;5.43;;;12.10;99.90;;;;;;5074521;28;21041;-74
2021/11/06 11:34:14;;;;;;;7.73;5.03;;;12.20;99.90;;;;;;5073432;28;20882;-74
2021/11/06 11:36:43;;;;;;;10.07;6.50;;;12.20;99.90;;;;;;5076610;28;20511;-74
2021/11/06 11:39:12;;;;;;;9.30;6.00;;;12.20;99.90;;;;;;5048708;28;20466;-71
2021/11/06 11:42:03;;;;;;;6.97;5.50;;;12.30;99.90;;;;;;5049550;28;20478;-74
2021/11/06 11:44:41;;;;;;;6.23;4.80;;;12.40;99.90;;;;;;5062968;28;20967;-74
2021/11/06 11:47:25;;;;;;;7.60;5.30;;;12.50;99.90;;;;;;5078233;28;20549;-74
2021/11/06 11:49:53;;;;;;;7.17;5.20;;;12.60;99.90;;;;;;5061388;28;20552;-74
2021/11/06 11:52:37;;;;;;;6.50;4.80;;;12.70;99.90;;;;;;5036466;28;20465;-75
2021/11/06 11:55:28;;;;;;;6.43;4.33;;;12.80;99.90;;;;;;5055653;28;20457;-74
2021/11/06 11:58:18;;;;;;;7.17;4.17;;;12.80;99.90;;;;;;5060230;28;20498;-75
2021/11/06 12:01:05;;;;;;;4.53;4.13;;;12.80;99.90;;;;;;5040874;28;20467;-74
2021/11/06 12:03:41;;;;;;;4.87;4.07;;;12.90;99.90;;;;;;5046622;28;20560;-74
2021/11/06 12:06:33;;;;;;;5.00;4.20;;;13.00;99.90;;;;;;5057272;28;20465;-74
2021/11/06 12:09:11;;;;;;;5.97;4.20;;;13.10;99.90;;;;;;5065121;28;20547;-74
2021/11/06 12:11:43;;;;;;;5.00;4.00;;;13.30;99.90;;;;;;5049820;28;20474;-73
2021/11/06 12:14:21;;;;;;;7.77;4.43;;;13.30;99.90;;;;;;5064159;28;20454;-74
2021/11/06 12:16:48;;;;;;;4.83;4.30;;;13.30;99.90;;;;;;5046786;28;20461;-75
2021/11/06 12:19:52;;;;;;;7.03;4.40;;;13.30;99.90;;;;;;5050898;28;20450;-74
2021/11/06 12:22:18;;;;;;;7.77;4.10;;;13.30;99.90;;;;;;5053374;28;20472;-74
2021/11/06 12:24:47;;;;;;;6.30;4.40;;;13.30;99.90;;;;;;5067094;28;20519;-74
2021/11/06 12:27:15;;;;;;;4.27;3.87;;;13.30;99.90;;;;;;5066578;28;20892;-74
2021/11/06 12:29:50;;;;;;;8.53;5.57;;;13.30;99.90;;;;;;5048582;28;20459;-74
2021/11/06 12:32:25;;;;;;;6.57;5.60;;;13.30;99.90;;;;;;5041476;28;20886;-74
2021/11/06 12:34:57;;;;;;;8.63;5.50;;;13.20;99.90;;;;;;5047246;28;20461;-74
2021/11/06 12:37:38;;;;;;;6.83;6.13;;;13.20;99.90;;;;;;5052502;28;20875;-74
2021/11/06 12:40:06;;;;;;;9.87;6.70;;;13.10;99.90;;;;;;5053767;28;20508;-74
2021/11/06 12:42:32;;;;;;;9.43;7.20;;;13.10;99.90;;;;;;5046703;28;20506;-74
2021/11/06 12:45:06;;;;;;;9.40;7.33;;;13.10;99.90;;;;;;5055022;28;20495;-74
2021/11/06 12:47:35;;;;;;;7.90;6.90;;;13.00;99.90;;;;;;5050998;28;20223;-73
2021/11/06 12:50:15;;;;;;;8.13;6.70;;;13.00;99.90;;;;;;5057557;28;20461;-75
2021/11/06 12:52:42;;;;;;;12.03;6.67;;;12.90;99.90;;;;;;5048337;28;20462;-74
2021/11/06 12:55:08;;;;;;;8.43;6.40;;;12.90;99.90;;;;;;5048084;28;20465;-74